sensor_id;sensor_type;location;lat;lon;timestamp;temperature;humidity
18268;DHT22;9260;49.998;19.880;2023-11-19T00:19:25;0.40;1.00
18268;DHT22;9260;49.998;19.880;2023-11-19T00:29:29;0.40;1.00
18268;DHT22;9260;49.998;19.880;2023-11-19T00:39:34;0.40;1.00
18268;DHT22;9260;49.998;19.880;2023-11-19T00:49:38;0.40;1.00
18268;DHT22;9260;49.998;19.880;2023-11-19T00:59:43;0.40;1.00
18268;DHT22;9260;49.998;19.880;2023-11-19T01:29:58;0.40;1.00
18268;DHT22;9260;49.998;19.880;2023-11-19T01:50:12;0.30;1.00
18268;DHT22;9260;49.998;19.880;2023-11-19T02:10:21;0.40;1.00
18268;DHT22;9260;49.998;19.880;2023-11-19T02:20:28;0.40;1.00
18268;DHT22;9260;49.998;19.880;2023-11-19T02:30:33;0.30;1.00
18268;DHT22;9260;49.998;19.880;2023-11-19T02:40:37;0.40;1.00
18268;DHT22;9260;49.998;19.880;2023-11-19T03:20:59;0.10;1.00
18268;DHT22;9260;49.998;19.880;2023-11-19T03:51:16;0.00;1.00
18268;DHT22;9260;49.998;19.880;2023-11-19T04:01:19;-0.20;1.00
18268;DHT22;9260;49.998;19.880;2023-11-19T04:11:25;-0.50;1.00
18268;DHT22;9260;49.998;19.880;2023-11-19T04:31:34;-0.40;1.00
18268;DHT22;9260;49.998;19.880;2023-11-19T05:42:13;-2.60;1.00
18268;DHT22;9260;49.998;19.880;2023-11-19T05:52:18;-2.30;1.00
18268;DHT22;9260;49.998;19.880;2023-11-19T06:02:24;-2.10;1.00
18268;DHT22;9260;49.998;19.880;2023-11-19T06:12:30;-1.90;1.00
18268;DHT22;9260;49.998;19.880;2023-11-19T06:22:35;-1.50;1.00
18268;DHT22;9260;49.998;19.880;2023-11-19T06:52:49;-0.40;1.00
18268;DHT22;9260;49.998;19.880;2023-11-19T07:02:53;-0.10;1.00
18268;DHT22;9260;49.998;19.880;2023-11-19T07:23:03;0.60;1.00
18268;DHT22;9260;49.998;19.880;2023-11-19T07:33:07;1.00;1.00
18268;DHT22;9260;49.998;19.880;2023-11-19T07:43:11;1.50;1.00
18268;DHT22;9260;49.998;19.880;2023-11-19T08:03:20;2.10;1.00
18268;DHT22;9260;49.998;19.880;2023-11-19T08:23:30;2.40;1.00
18268;DHT22;9260;49.998;19.880;2023-11-19T08:43:38;2.70;1.00
18268;DHT22;9260;49.998;19.880;2023-11-19T08:53:43;2.70;1.00
18268;DHT22;9260;49.998;19.880;2023-11-19T09:03:47;2.80;1.00
18268;DHT22;9260;49.998;19.880;2023-11-19T09:13:51;2.60;1.00
18268;DHT22;9260;49.998;19.880;2023-11-19T09:23:55;2.80;1.00
18268;DHT22;9260;49.998;19.880;2023-11-19T09:34:00;2.90;1.00
18268;DHT22;9260;49.998;19.880;2023-11-19T09:44:04;3.00;1.00
18268;DHT22;9260;49.998;19.880;2023-11-19T09:54:09;3.30;1.00
18268;DHT22;9260;49.998;19.880;2023-11-19T10:04:15;3.90;1.00
18268;DHT22;9260;49.998;19.880;2023-11-19T10:14:21;4.30;1.00
18268;DHT22;9260;49.998;19.880;2023-11-19T10:24:31;5.20;1.00
18268;DHT22;9260;49.998;19.880;2023-11-19T10:34:37;5.50;1.00
18268;DHT22;9260;49.998;19.880;2023-11-19T10:44:41;5.70;1.00
18268;DHT22;9260;49.998;19.880;2023-11-19T10:54:49;5.80;1.00
18268;DHT22;9260;49.998;19.880;2023-11-19T11:04:54;4.50;1.00
18268;DHT22;9260;49.998;19.880;2023-11-19T11:14:59;4.40;1.00
18268;DHT22;9260;49.998;19.880;2023-11-19T11:25:11;4.40;1.00
18268;DHT22;9260;49.998;19.880;2023-11-19T11:35:29;4.80;1.00
18268;DHT22;9260;49.998;19.880;2023-11-19T11:45:35;3.80;1.00
18268;DHT22;9260;49.998;19.880;2023-11-19T11:55:53;3.60;1.00
18268;DHT22;9260;49.998;19.880;2023-11-19T12:05:59;3.50;1.00
18268;DHT22;9260;49.998;19.880;2023-11-19T12:16:11;3.00;1.00
18268;DHT22;9260;49.998;19.880;2023-11-19T12:26:21;3.00;1.00
18268;DHT22;9260;49.998;19.880;2023-11-19T12:36:35;3.00;1.00
18268;DHT22;9260;49.998;19.880;2023-11-19T12:46:39;2.30;1.00
18268;DHT22;9260;49.998;19.880;2023-11-19T12:56:52;2.00;1.00
18268;DHT22;9260;49.998;19.880;2023-11-19T13:06:56;1.90;1.00
18268;DHT22;9260;49.998;19.880;2023-11-19T13:17:04;1.90;1.00
18268;DHT22;9260;49.998;19.880;2023-11-19T13:27:09;1.90;1.00
18268;DHT22;9260;49.998;19.880;2023-11-19T13:37:14;1.70;1.00
18268;DHT22;9260;49.998;19.880;2023-11-19T13:47:17;1.70;1.00
18268;DHT22;9260;49.998;19.880;2023-11-19T13:57:22;1.80;1.00
18268;DHT22;9260;49.998;19.880;2023-11-19T14:07:26;2.10;1.00
18268;DHT22;9260;49.998;19.880;2023-11-19T14:17:31;1.80;1.00
18268;DHT22;9260;49.998;19.880;2023-11-19T14:27:34;1.90;1.00
18268;DHT22;9260;49.998;19.880;2023-11-19T14:37:39;1.60;1.00
18268;DHT22;9260;49.998;19.880;2023-11-19T14:47:43;1.70;1.00
18268;DHT22;9260;49.998;19.880;2023-11-19T14:57:48;1.70;1.00
18268;DHT22;9260;49.998;19.880;2023-11-19T15:08:06;1.50;1.00
18268;DHT22;9260;49.998;19.880;2023-11-19T15:18:11;1.60;1.00
18268;DHT22;9260;49.998;19.880;2023-11-19T15:28:16;1.70;1.00
18268;DHT22;9260;49.998;19.880;2023-11-19T15:38:22;1.70;1.00
18268;DHT22;9260;49.998;19.880;2023-11-19T15:48:26;1.80;1.00
18268;DHT22;9260;49.998;19.880;2023-11-19T15:58:31;1.90;1.00
18268;DHT22;9260;49.998;19.880;2023-11-19T16:08:36;2.00;1.00
18268;DHT22;9260;49.998;19.880;2023-11-19T16:18:41;1.90;1.00
18268;DHT22;9260;49.998;19.880;2023-11-19T16:28:45;2.00;1.00
18268;DHT22;9260;49.998;19.880;2023-11-19T16:38:50;2.20;1.00
18268;DHT22;9260;49.998;19.880;2023-11-19T16:48:54;2.20;1.00
18268;DHT22;9260;49.998;19.880;2023-11-19T16:58:59;2.20;1.00
18268;DHT22;9260;49.998;19.880;2023-11-19T17:09:03;2.20;1.00
18268;DHT22;9260;49.998;19.880;2023-11-19T17:19:08;2.10;1.00
18268;DHT22;9260;49.998;19.880;2023-11-19T17:29:12;2.20;1.00
18268;DHT22;9260;49.998;19.880;2023-11-19T17:39:18;2.20;1.00
18268;DHT22;9260;49.998;19.880;2023-11-19T17:49:22;2.20;1.00
18268;DHT22;9260;49.998;19.880;2023-11-19T17:59:26;2.20;1.00
18268;DHT22;9260;49.998;19.880;2023-11-19T18:09:30;2.50;1.00
18268;DHT22;9260;49.998;19.880;2023-11-19T18:19:35;2.10;1.00
18268;DHT22;9260;49.998;19.880;2023-11-19T18:29:39;1.80;1.00
18268;DHT22;9260;49.998;19.880;2023-11-19T18:39:46;1.80;1.00
18268;DHT22;9260;49.998;19.880;2023-11-19T18:49:49;1.80;1.00
18268;DHT22;9260;49.998;19.880;2023-11-19T18:59:54;1.90;1.00
18268;DHT22;9260;49.998;19.880;2023-11-19T19:09:58;1.90;1.00
18268;DHT22;9260;49.998;19.880;2023-11-19T19:20:06;2.20;1.00
18268;DHT22;9260;49.998;19.880;2023-11-19T19:30:12;2.10;1.00
18268;DHT22;9260;49.998;19.880;2023-11-19T19:40:17;1.20;1.00
18268;DHT22;9260;49.998;19.880;2023-11-19T19:50:24;1.10;1.00
18268;DHT22;9260;49.998;19.880;2023-11-19T20:00:29;0.60;1.00
18268;DHT22;9260;49.998;19.880;2023-11-19T20:10:33;0.40;1.00
18268;DHT22;9260;49.998;19.880;2023-11-19T20:20:39;0.60;1.00
18268;DHT22;9260;49.998;19.880;2023-11-19T20:30:44;0.50;1.00
18268;DHT22;9260;49.998;19.880;2023-11-19T20:40:49;0.50;1.00
18268;DHT22;9260;49.998;19.880;2023-11-19T21:11:02;1.70;1.00
18268;DHT22;9260;49.998;19.880;2023-11-19T21:21:07;1.90;1.00
18268;DHT22;9260;49.998;19.880;2023-11-19T21:31:11;2.20;1.00
18268;DHT22;9260;49.998;19.880;2023-11-19T21:41:18;2.30;1.00
18268;DHT22;9260;49.998;19.880;2023-11-19T21:51:21;2.70;1.00
18268;DHT22;9260;49.998;19.880;2023-11-19T22:01:27;2.80;1.00
18268;DHT22;9260;49.998;19.880;2023-11-19T22:11:33;2.80;1.00
18268;DHT22;9260;49.998;19.880;2023-11-19T22:21:38;3.10;1.00
18268;DHT22;9260;49.998;19.880;2023-11-19T22:31:42;3.20;1.00
18268;DHT22;9260;49.998;19.880;2023-11-19T22:41:48;3.00;1.00
18268;DHT22;9260;49.998;19.880;2023-11-19T22:51:51;2.90;1.00
18268;DHT22;9260;49.998;19.880;2023-11-19T23:01:56;3.30;1.00
18268;DHT22;9260;49.998;19.880;2023-11-19T23:12:00;3.20;1.00
18268;DHT22;9260;49.998;19.880;2023-11-19T23:22:05;3.50;1.00
18268;DHT22;9260;49.998;19.880;2023-11-19T23:32:09;3.50;1.00
18268;DHT22;9260;49.998;19.880;2023-11-19T23:42:14;3.70;1.00
18268;DHT22;9260;49.998;19.880;2023-11-19T23:52:18;3.60;1.00
